Euskara    
Meteorología y climatología de Navarra
Datos de la estación - Meteo Navarra

Estación de Doneztebe-Santesteban GN

Altitud 125 m.


Datos desde el 08/04/2021 hasta el 09/04/2021 en horario solar
Los datos son PROVISIONALES

Anterior Página 1 de 1 Siguiente Descargar: Formato para Excel 2000 o superior   Formato csv   Formato para OpenOffice Calc
Fecha Temperatura Humedad relativa Radiación global Insolación Precipitación Vel. viento 10 m Vel. viento 10 m Dir. viento 10 m
°C % W/m² s l/m² m/s km/h °
08/04/2021 0:00 0.6 92 0.0 0 0.0 0.2 0.8 55
08/04/2021 0:10 0.5 92 0.0 0 0.0 0.1 0.3 167
08/04/2021 0:20 0.5 93 0.0 0 0.0 0.8 2.8 345
08/04/2021 0:30 0.5 93 0.0 0 0.0 0.6 2.0 122
08/04/2021 0:40 0.3 92 0.0 0 0.0 0.2 0.9 234
08/04/2021 0:50 0.3 93 0.0 0 0.0 0.7 2.6 131
08/04/2021 1:00 0.5 92 0.0 0 0.0 0.6 2.2 146
08/04/2021 1:10 0.5 91 0.0 0 0.0 0.7 2.4 140
08/04/2021 1:20 0.8 91 0.0 0 0.0 0.9 3.3 102
08/04/2021 1:30 0.8 89 0.0 0 0.0 1.0 3.7 122
08/04/2021 1:40 1.0 89 0.0 0 0.0 0.9 3.1 204
08/04/2021 1:50 1.1 88 0.0 0 0.0 0.6 2.3 131
08/04/2021 2:00 1.1 88 0.0 0 0.0 0.7 2.4 144
08/04/2021 2:10 1.3 88 0.0 0 0.0 1.2 4.2 133
08/04/2021 2:20 1.3 89 0.0 0 0.0 0.9 3.2 125
08/04/2021 2:30 1.7 88 0.0 0 0.0 0.9 3.3 160
08/04/2021 2:40 2.3 86 0.0 0 0.0 1.0 3.5 319
08/04/2021 2:50 4.9 78 0.0 0 0.0 1.9 6.9 327
08/04/2021 3:00 8.7 64 0.0 0 0.0 3.6 13.0 308
08/04/2021 3:10 9.6 60 0.0 0 0.0 3.6 12.9 315
08/04/2021 3:20 10.1 57 0.0 0 0.0 2.7 9.8 303
08/04/2021 3:30 10.6 55 0.0 0 0.0 3.4 12.3 305
08/04/2021 3:40 10.8 54 0.0 0 0.0 4.5 16.2 304
08/04/2021 3:50 10.7 53 0.0 0 0.0 3.8 13.5 303
08/04/2021 4:00 10.7 53 0.0 0 0.0 3.7 13.4 304
08/04/2021 4:10 10.6 54 0.0 0 0.0 2.4 8.7 294
08/04/2021 4:20 10.6 53 0.0 0 0.0 2.3 8.3 294
08/04/2021 4:30 10.3 55 0.0 0 0.0 2.3 8.3 299
08/04/2021 4:40 9.8 57 0.0 0 0.0 2.2 7.8 286
08/04/2021 4:50 10.0 56 0.0 0 0.0 2.7 9.8 297
08/04/2021 5:00 9.8 57 0.0 0 0.0 1.7 6.2 291
08/04/2021 5:10 9.9 56 0.0 0 0.0 2.9 10.4 287
08/04/2021 5:20 9.8 57 0.0 0 0.0 2.7 9.8 287
08/04/2021 5:30 9.8 57 0.0 0 0.0 3.0 10.7 288
08/04/2021 5:40 9.7 57 0.0 0 0.0 3.2 11.4 288
08/04/2021 5:50 9.4 60 0.0 0 0.0 2.7 9.9 294
08/04/2021 6:00 9.3 61 14.8 58 0.0 2.5 9.1 290
08/04/2021 6:10 9.1 62 43.5 600 0.0 3.4 12.3 295
08/04/2021 6:20 9.2 62 64.7 600 0.0 3.7 13.4 297
08/04/2021 6:30 9.2 63 82.1 430 0.0 3.9 13.9 298
08/04/2021 6:40 9.2 63 130.2 600 0.0 4.8 17.2 300
08/04/2021 6:50 9.5 61 147.3 600 0.0 2.9 10.4 281
08/04/2021 7:00 9.5 62 196.0 600 0.0 4.1 14.8 298
08/04/2021 7:10 9.9 60 229.0 600 0.0 3.2 11.7 291
08/04/2021 7:20 10.2 59 262.2 600 0.0 3.0 10.9 289
08/04/2021 7:30 10.4 58 296.1 600 0.0 4.3 15.3 302
08/04/2021 7:40 10.7 57 328.3 600 0.0 4.1 14.9 285
08/04/2021 7:50 11.1 56 361.1 600 0.0 4.2 15.0 301
08/04/2021 8:00 11.4 54 395.8 600 0.0 3.8 13.7 291
08/04/2021 8:10 11.9 54 426.6 600 0.0 3.5 12.5 288
08/04/2021 8:20 12.2 53 462.1 600 0.0 3.9 13.9 301
08/04/2021 8:30 12.5 52 472.5 600 0.0 3.8 13.7 294
08/04/2021 8:40 12.6 51 506.1 600 0.0 3.1 11.1 285
08/04/2021 8:50 13.1 50 550.1 600 0.0 2.9 10.3 279
08/04/2021 9:00 13.3 50 585.4 600 0.0 2.8 9.9 269
08/04/2021 9:10 13.6 49 612.2 600 0.0 4.2 15.2 280
08/04/2021 9:20 13.7 49 638.6 600 0.0 3.5 12.4 264
08/04/2021 9:30 13.9 48 665.3 600 0.0 4.1 14.8 277
08/04/2021 9:40 14.0 48 692.1 600 0.0 3.8 13.6 257
08/04/2021 9:50 14.3 48 710.9 600 0.0 4.3 15.3 265
08/04/2021 10:00 14.4 48 733.1 600 0.0 4.0 14.5 254
08/04/2021 10:10 14.4 47 732.0 600 0.0 4.0 14.3 252
08/04/2021 10:20 14.8 47 775.7 600 0.0 2.9 10.4 252
08/04/2021 10:30 15.3 47 792.1 600 0.0 3.2 11.6 241
08/04/2021 10:40 15.3 47 718.1 600 0.0 3.1 11.2 249
08/04/2021 10:50 15.6 47 819.0 600 0.0 3.2 11.5 226
08/04/2021 11:00 16.1 46 840.0 600 0.0 1.9 6.7 249
08/04/2021 11:10 16.3 46 839.0 600 0.0 2.1 7.7 266
08/04/2021 11:20 16.5 45 842.0 600 0.0 2.8 9.9 250
08/04/2021 11:30 16.5 46 853.0 600 0.0 2.1 7.5 239
08/04/2021 11:40 17.1 46 848.0 600 0.0 2.7 9.6 255
08/04/2021 11:50 17.1 44 831.0 600 0.0 2.7 9.6 253
08/04/2021 12:00 17.4 45 822.0 600 0.0 2.0 7.2 260
08/04/2021 12:10 17.8 44 835.0 600 0.0 2.0 7.3 253
08/04/2021 12:20 17.9 44 839.0 600 0.0 2.1 7.6 252
08/04/2021 12:30 18.0 44 824.0 600 0.0 1.5 5.4 253
08/04/2021 12:40 18.6 44 803.0 600 0.0 1.6 5.7 271
08/04/2021 12:50 18.4 43 709.4 600 0.0 1.8 6.5 250
08/04/2021 13:00 18.6 43 710.9 600 0.0 1.8 6.6 239
08/04/2021 13:10 18.8 43 697.1 600 0.0 2.1 7.5 250
08/04/2021 13:20 19.0 43 769.9 600 0.0 2.1 7.7 240
08/04/2021 13:30 19.4 42 719.7 600 0.0 1.7 6.2 252
08/04/2021 13:40 19.6 42 725.3 600 0.0 1.8 6.6 253
08/04/2021 13:50 19.5 41 646.5 600 0.0 2.0 7.1 241
08/04/2021 14:00 19.2 40 587.6 600 0.0 1.9 6.7 232
08/04/2021 14:10 19.5 43 577.0 600 0.0 1.6 5.7 278
08/04/2021 14:20 19.6 42 464.3 600 0.0 2.2 7.8 257
08/04/2021 14:30 19.3 41 439.9 546 0.0 2.2 7.7 251
08/04/2021 14:40 19.6 42 457.5 600 0.0 2.3 8.1 262
08/04/2021 14:50 19.5 44 367.5 426 0.0 2.6 9.5 294
08/04/2021 15:00 19.3 42 370.9 440 0.0 2.3 8.2 258
08/04/2021 15:10 19.6 44 389.6 600 0.0 1.9 6.7 305
08/04/2021 15:20 19.6 42 357.2 600 0.0 1.2 4.4 264
08/04/2021 15:30 19.5 43 368.0 600 0.0 2.1 7.6 275
08/04/2021 15:40 19.7 41 294.1 296 0.0 1.2 4.3 263
08/04/2021 15:50 19.6 45 290.8 362 0.0 1.6 5.7 297
08/04/2021 16:00 19.7 44 248.9 114 0.0 1.9 6.7 293
08/04/2021 16:10 19.7 44 423.6 546 0.0 2.0 7.1 290
08/04/2021 16:20 20.5 40 430.0 600 0.0 1.2 4.2 250
08/04/2021 16:30 20.9 41 396.7 600 0.0 1.1 3.9 280
08/04/2021 16:40 20.6 40 162.1 80 0.0 1.9 6.7 258
08/04/2021 16:50 19.9 41 163.5 192 0.0 1.7 6.1 260
08/04/2021 17:00 20.0 42 277.7 600 0.0 2.3 8.2 268
08/04/2021 17:10 20.1 40 215.5 530 0.0 2.1 7.4 262
08/04/2021 17:20 20.0 40 156.6 378 0.0 1.6 5.6 245
08/04/2021 17:30 19.8 42 193.6 600 0.0 1.2 4.3 279
08/04/2021 17:40 19.6 43 153.2 600 0.0 1.4 5.2 271
08/04/2021 17:50 19.4 44 114.2 600 0.0 0.9 3.2 291
08/04/2021 18:00 19.1 45 79.1 596 0.0 1.5 5.4 312
08/04/2021 18:10 18.9 45 42.7 174 0.0 1.4 4.9 300
08/04/2021 18:20 18.1 47 12.1 0 0.0 0.7 2.4 292
08/04/2021 18:30 17.9 48 0.0 0 0.0 1.1 3.8 286
08/04/2021 18:40 18.0 47 0.0 0 0.0 1.0 3.7 294
08/04/2021 18:50 16.9 51 0.0 0 0.0 1.4 5.0 300
08/04/2021 19:00 17.4 49 0.0 0 0.0 1.6 5.6 279
08/04/2021 19:10 17.3 50 0.0 0 0.0 1.2 4.1 306
08/04/2021 19:20 16.1 54 0.0 0 0.0 0.9 3.4 310
08/04/2021 19:30 16.5 53 0.0 0 0.0 0.9 3.1 296
08/04/2021 19:40 16.6 52 0.0 0 0.0 2.0 7.3 322
08/04/2021 19:50 16.0 56 0.0 0 0.0 1.6 5.7 310
08/04/2021 20:00 15.2 59 0.0 0 0.0 1.2 4.4 304
08/04/2021 20:10 14.5 61 0.0 0 0.0 1.1 3.9 278
08/04/2021 20:20 14.8 60 0.0 0 0.0 1.7 6.0 294
08/04/2021 20:30 15.7 57 0.0 0 0.0 1.9 6.8 295
08/04/2021 20:40 16.1 56 0.0 0 0.0 1.8 6.5 301
08/04/2021 20:50 15.7 58 0.0 0 0.0 1.7 6.0 294
08/04/2021 21:00 16.3 55 0.0 0 0.0 2.3 8.4 305
08/04/2021 21:10 16.8 53 0.0 0 0.0 2.7 9.6 296
08/04/2021 21:20 17.6 50 0.0 0 0.0 2.9 10.6 307
08/04/2021 21:30 17.3 50 0.0 0 0.0 2.4 8.5 303
08/04/2021 21:40 17.4 50 0.0 0 0.0 2.1 7.4 300
08/04/2021 21:50 17.3 50 0.0 0 0.0 2.5 8.9 301
08/04/2021 22:00 17.3 50 0.0 0 0.0 2.7 9.8 313
08/04/2021 22:10 17.3 50 0.0 0 0.0 3.0 10.7 300
08/04/2021 22:20 17.0 51 0.0 0 0.0 2.8 10.1 308
08/04/2021 22:30 17.0 51 0.0 0 0.0 2.8 10.0 291
08/04/2021 22:40 16.8 51 0.0 0 0.0 4.2 14.9 312
08/04/2021 22:50 17.0 50 0.0 0 0.0 4.3 15.6 306
08/04/2021 23:00 17.1 49 0.0 0 0.0 4.1 14.8 302
08/04/2021 23:10 17.1 48 0.0 0 0.0 3.8 13.8 304
08/04/2021 23:20 16.9 49 0.0 0 0.0 3.3 11.8 309
08/04/2021 23:30 16.6 50 0.0 0 0.0 3.3 11.8 306
08/04/2021 23:40 16.8 49 0.0 0 0.0 3.3 12.0 288
08/04/2021 23:50 16.5 51 0.0 0 0.0 1.3 4.6 278
Anterior Página 1 de 1 Siguiente

NOTA: Tipo de datos según el color:
   - Valores diarios o 10 minutos correctos
   - Valores diarios calculados a partir de un número de datos 10 minutos menor que 144 y mayor que 120, o de un número de datos semihorarios menor que 48 y mayor que 40 (caso de las estaciones de INTIA Y Ministerio)
   - Valores diez minutos estimados


Contacto        Enlaces        Aviso legal